Time;durP1;ratioP1;P1;durP2;ratioP2;P2;SDS_P1;SDS_P2;PMS_P1;PMS_P2;Temp;Humidity;BMP_temperature;BMP_pressure;BME280_temperature;BME280_humidity;BME280_pressure;Samples;Min_cycle;Max_cycle;Signal;HPM_P1;HPM_P2
2021/08/16 00:01:23;;;;;;;1.50;0.90;;;20.30;95.00;;;;;;5018543;28;20561;-81
2021/08/16 00:03:49;;;;;;;1.50;1.00;;;20.30;94.50;;;;;;5026951;28;20470;-79
2021/08/16 00:06:16;;;;;;;1.50;0.90;;;20.20;94.70;;;;;;5009848;28;20539;-80
2021/08/16 00:08:44;;;;;;;1.70;1.53;;;20.20;94.60;;;;;;5016640;28;21134;-79
2021/08/16 00:11:11;;;;;;;1.50;1.00;;;20.20;94.70;;;;;;5020346;28;20502;-80
2021/08/16 00:13:38;;;;;;;1.50;0.90;;;20.10;95.00;;;;;;5015627;28;20459;-77
2021/08/16 00:16:07;;;;;;;1.50;0.90;;;20.10;94.90;;;;;;5021133;28;21017;-80
2021/08/16 00:18:34;;;;;;;1.50;0.90;;;20.00;95.10;;;;;;5017469;28;20467;-79
2021/08/16 00:21:01;;;;;;;1.50;1.00;;;19.90;94.90;;;;;;5019081;28;21049;-79
2021/08/16 00:23:28;;;;;;;1.50;1.00;;;19.80;94.70;;;;;;5018579;28;20855;-78
2021/08/16 00:25:56;;;;;;;1.50;0.90;;;19.80;94.80;;;;;;5022789;28;20491;-78
2021/08/16 00:28:23;;;;;;;1.50;0.90;;;19.70;94.70;;;;;;5020858;28;20467;-82
2021/08/16 00:30:50;;;;;;;1.50;0.90;;;19.70;94.10;;;;;;5022592;28;20462;-81
2021/08/16 00:33:16;;;;;;;1.50;1.00;;;19.60;93.70;;;;;;5021280;28;20475;-81
2021/08/16 00:35:43;;;;;;;1.50;1.00;;;19.50;93.90;;;;;;5032890;28;20873;-79
2021/08/16 00:38:10;;;;;;;1.50;0.90;;;19.40;94.10;;;;;;5009052;28;20479;-79
2021/08/16 00:40:37;;;;;;;1.50;0.90;;;19.30;94.10;;;;;;5032794;28;20451;-82
2021/08/16 00:43:05;;;;;;;1.50;0.90;;;19.30;94.40;;;;;;5006277;28;20480;-82
2021/08/16 00:45:33;;;;;;;1.50;0.90;;;19.20;94.10;;;;;;5035623;28;21055;-79
2021/08/16 00:48:00;;;;;;;1.50;0.90;;;19.20;94.30;;;;;;5009134;28;20891;-80
2021/08/16 00:50:27;;;;;;;1.50;0.90;;;19.10;93.90;;;;;;5037193;28;20495;-83
2021/08/16 00:52:54;;;;;;;1.50;1.00;;;19.00;93.30;;;;;;5012673;28;20475;-80
2021/08/16 00:55:21;;;;;;;1.50;1.00;;;19.00;93.30;;;;;;5035771;28;20464;-80
2021/08/16 00:57:48;;;;;;;1.50;0.90;;;18.90;93.60;;;;;;5007371;28;20492;-81
2021/08/16 01:00:17;;;;;;;1.50;0.90;;;18.90;93.40;;;;;;5032294;28;20471;-80
2021/08/16 01:02:44;;;;;;;1.50;1.00;;;18.80;93.50;;;;;;5014774;28;20483;-81
2021/08/16 01:05:13;;;;;;;1.50;0.90;;;18.80;93.60;;;;;;5035367;28;20459;-81
2021/08/16 01:07:42;;;;;;;1.50;0.90;;;18.70;94.10;;;;;;5010014;28;21018;-81
2021/08/16 01:10:10;;;;;;;1.50;0.90;;;18.60;94.10;;;;;;5035915;28;20459;-82
2021/08/16 01:12:37;;;;;;;1.50;0.90;;;18.50;94.20;;;;;;5002303;28;20480;-78
2021/08/16 01:15:06;;;;;;;1.50;1.00;;;18.50;94.20;;;;;;5031652;28;20613;-81
2021/08/16 01:17:35;;;;;;;1.50;1.00;;;18.40;94.10;;;;;;5002962;28;20515;-78
2021/08/16 01:20:03;;;;;;;1.50;1.00;;;18.40;94.30;;;;;;5033195;28;20451;-81
2021/08/16 01:22:31;;;;;;;1.80;1.30;;;18.30;94.20;;;;;;5007716;28;20484;-80
2021/08/16 01:24:58;;;;;;;1.50;0.90;;;18.30;94.20;;;;;;5029197;28;20727;-81
2021/08/16 01:27:26;;;;;;;1.50;1.00;;;18.30;93.80;;;;;;5015964;28;20492;-81
2021/08/16 01:29:53;;;;;;;1.50;1.00;;;18.30;93.90;;;;;;5034071;28;20452;-81
2021/08/16 01:32:19;;;;;;;1.50;0.90;;;18.20;94.00;;;;;;5013266;28;20863;-80
2021/08/16 01:34:46;;;;;;;1.50;1.00;;;18.20;94.30;;;;;;5027348;28;20463;-79
2021/08/16 01:37:13;;;;;;;1.50;1.00;;;18.10;94.30;;;;;;5005838;28;20705;-80
2021/08/16 01:39:39;;;;;;;1.50;0.90;;;18.10;94.20;;;;;;5025631;28;20961;-81
2021/08/16 01:42:06;;;;;;;1.50;1.00;;;18.10;94.50;;;;;;5010169;28;20484;-80
2021/08/16 01:44:37;;;;;;;1.50;1.00;;;18.00;94.80;;;;;;5025791;28;20471;-81
2021/08/16 01:47:04;;;;;;;1.50;1.00;;;18.00;95.00;;;;;;4999453;28;20479;-81
2021/08/16 01:49:31;;;;;;;1.57;1.00;;;17.90;94.80;;;;;;5021907;28;20470;-81
2021/08/16 01:51:58;;;;;;;1.50;1.00;;;17.80;94.90;;;;;;5021000;28;20479;-80
2021/08/16 01:54:24;;;;;;;1.80;1.50;;;17.80;94.80;;;;;;5026411;28;20847;-80
2021/08/16 01:56:51;;;;;;;1.50;1.00;;;17.80;94.80;;;;;;5021395;28;20829;-79
2021/08/16 01:59:18;;;;;;;1.50;0.90;;;17.70;95.00;;;;;;5031606;28;20499;-81
2021/08/16 02:01:46;;;;;;;1.50;0.97;;;17.70;94.80;;;;;;5017024;28;20475;-81
2021/08/16 02:04:13;;;;;;;1.50;1.00;;;17.70;95.00;;;;;;5021451;28;20471;-81
2021/08/16 02:06:40;;;;;;;1.50;0.93;;;17.60;94.70;;;;;;5013655;28;21026;-80
2021/08/16 02:09:06;;;;;;;1.50;1.00;;;17.60;94.80;;;;;;5025096;28;20462;-81
2021/08/16 02:11:33;;;;;;;1.50;0.90;;;17.60;94.90;;;;;;5017426;28;20488;-82
2021/08/16 02:14:00;;;;;;;1.50;1.00;;;17.50;94.90;;;;;;5024535;28;20456;-80
2021/08/16 02:16:26;;;;;;;1.50;0.90;;;17.50;94.90;;;;;;5019321;28;21002;-81
2021/08/16 02:18:54;;;;;;;1.50;0.90;;;17.50;95.00;;;;;;5017920;28;20654;-81
2021/08/16 02:21:21;;;;;;;1.50;1.00;;;17.40;94.90;;;;;;5016435;28;20480;-82
2021/08/16 02:23:48;;;;;;;1.50;0.97;;;17.40;94.90;;;;;;5018556;28;20463;-79
2021/08/16 02:26:15;;;;;;;1.50;0.90;;;17.40;95.00;;;;;;5016914;28;20484;-79
2021/08/16 02:28:41;;;;;;;1.50;1.00;;;17.40;95.00;;;;;;5015833;28;20471;-81
2021/08/16 02:31:08;;;;;;;1.50;1.00;;;17.40;94.80;;;;;;5020387;28;20490;-80
2021/08/16 02:33:35;;;;;;;1.50;0.97;;;17.30;94.80;;;;;;5030781;28;21025;-81
2021/08/16 02:36:03;;;;;;;1.50;0.90;;;17.30;95.00;;;;;;5017725;28;20483;-80
2021/08/16 02:38:30;;;;;;;1.50;1.00;;;17.30;95.10;;;;;;5016641;28;20456;-80
2021/08/16 02:40:56;;;;;;;1.50;1.00;;;17.30;95.20;;;;;;5020233;28;20471;-79
2021/08/16 02:43:27;;;;;;;1.50;1.00;;;17.30;95.00;;;;;;5029330;28;20487;-79
2021/08/16 02:45:54;;;;;;;1.50;1.00;;;17.20;95.40;;;;;;5021446;28;20819;-78
2021/08/16 02:48:21;;;;;;;1.53;1.00;;;17.20;95.60;;;;;;5021730;28;20571;-78
2021/08/16 02:50:47;;;;;;;1.50;1.00;;;17.20;95.70;;;;;;5022419;28;20464;-80
2021/08/16 02:53:15;;;;;;;1.50;0.90;;;17.10;95.80;;;;;;5030305;28;21147;-80
2021/08/16 02:55:42;;;;;;;1.50;1.00;;;17.10;95.90;;;;;;5033408;28;20786;-80
2021/08/16 02:58:09;;;;;;;1.50;1.00;;;17.10;96.00;;;;;;5018526;28;20475;-80
2021/08/16 03:00:35;;;;;;;1.50;0.90;;;17.10;96.00;;;;;;5025606;28;20448;-80
2021/08/16 03:03:02;;;;;;;1.50;1.00;;;17.10;96.00;;;;;;5014453;28;20475;-80
2021/08/16 03:05:29;;;;;;;1.50;1.10;;;17.20;96.00;;;;;;5029911;28;20467;-80
2021/08/16 03:07:56;;;;;;;1.50;1.00;;;17.20;96.10;;;;;;5007032;28;20487;-82
2021/08/16 03:10:24;;;;;;;1.50;1.00;;;17.20;96.30;;;;;;5033545;28;20462;-81
2021/08/16 03:12:51;;;;;;;1.50;1.00;;;17.20;96.00;;;;;;5003463;28;20476;-79
2021/08/16 03:15:18;;;;;;;1.50;1.00;;;17.20;96.10;;;;;;5033485;28;20542;-79
2021/08/16 03:17:45;;;;;;;1.50;1.00;;;17.20;96.30;;;;;;5008997;28;20486;-79
2021/08/16 03:20:12;;;;;;;1.50;0.90;;;17.20;96.10;;;;;;5029785;28;20471;-80
2021/08/16 03:22:39;;;;;;;1.50;0.90;;;17.30;96.40;;;;;;5011664;28;20476;-79
2021/08/16 03:25:06;;;;;;;1.50;0.90;;;17.30;96.50;;;;;;5031802;28;20969;-81
2021/08/16 03:27:34;;;;;;;1.50;0.90;;;17.30;96.30;;;;;;5009571;28;20505;-78
2021/08/16 03:30:02;;;;;;;1.50;1.00;;;17.30;96.40;;;;;;5029290;28;20467;-80
2021/08/16 03:32:28;;;;;;;1.50;1.00;;;17.40;96.40;;;;;;5005535;28;20488;-80
2021/08/16 03:34:55;;;;;;;1.50;1.00;;;17.40;96.60;;;;;;5029030;28;20460;-79
2021/08/16 03:37:22;;;;;;;1.50;1.00;;;17.40;96.60;;;;;;5009608;28;20516;-79
2021/08/16 03:39:49;;;;;;;1.50;1.00;;;17.40;96.50;;;;;;5028132;28;20845;-80
2021/08/16 03:42:15;;;;;;;1.50;1.00;;;17.40;96.40;;;;;;5017228;28;20486;-79
2021/08/16 03:44:43;;;;;;;1.50;0.97;;;17.50;96.30;;;;;;5031945;28;20747;-79
2021/08/16 03:47:10;;;;;;;1.50;0.90;;;17.50;96.80;;;;;;5004951;28;20476;-82
2021/08/16 03:49:37;;;;;;;1.50;0.90;;;17.50;96.80;;;;;;5026522;28;20463;-80
2021/08/16 03:52:04;;;;;;;1.50;0.90;;;17.50;97.00;;;;;;5019035;28;20486;-81
2021/08/16 03:54:31;;;;;;;1.50;0.97;;;17.50;97.20;;;;;;5020792;28;20472;-82
2021/08/16 03:56:58;;;;;;;1.50;1.00;;;17.50;97.20;;;;;;5013093;28;20487;-79
2021/08/16 03:59:25;;;;;;;1.50;0.90;;;17.50;97.50;;;;;;5026926;28;20942;-81
2021/08/16 04:01:53;;;;;;;1.50;0.90;;;17.50;97.40;;;;;;5015332;28;20483;-80
2021/08/16 04:04:20;;;;;;;1.50;1.00;;;17.50;97.50;;;;;;5024979;28;20833;-83
2021/08/16 04:06:47;;;;;;;1.50;1.00;;;17.60;97.70;;;;;;5014628;28;20546;-83
2021/08/16 04:09:14;;;;;;;1.50;1.00;;;17.60;97.80;;;;;;5023583;28;20460;-82
2021/08/16 04:11:40;;;;;;;1.50;1.00;;;17.60;97.80;;;;;;5014168;28;20486;-82
2021/08/16 04:14:07;;;;;;;1.50;1.00;;;17.60;98.20;;;;;;5022434;28;20460;-84
2021/08/16 04:16:34;;;;;;;1.50;1.00;;;17.60;98.00;;;;;;5019646;28;20495;-82
2021/08/16 04:19:02;;;;;;;1.50;1.00;;;17.60;98.20;;;;;;5030618;28;20459;-80
2021/08/16 04:21:29;;;;;;;1.50;0.90;;;17.60;98.00;;;;;;5018891;28;20484;-81
2021/08/16 04:23:56;;;;;;;1.53;1.10;;;17.60;98.00;;;;;;5023450;28;20483;-78
2021/08/16 04:26:22;;;;;;;1.50;1.00;;;17.60;98.10;;;;;;5019241;28;20483;-78
2021/08/16 04:28:49;;;;;;;1.50;1.00;;;17.60;98.20;;;;;;5019607;28;20467;-80
2021/08/16 04:31:16;;;;;;;1.50;0.90;;;17.60;98.20;;;;;;5012647;28;20496;-81
2021/08/16 04:33:43;;;;;;;1.50;0.90;;;17.70;98.20;;;;;;5021989;28;20455;-80
2021/08/16 04:36:11;;;;;;;1.50;1.00;;;17.70;98.20;;;;;;5022265;28;20495;-79
2021/08/16 04:38:38;;;;;;;1.50;0.90;;;17.70;98.20;;;;;;5021517;28;20559;-80
2021/08/16 04:41:04;;;;;;;1.50;1.00;;;17.70;98.20;;;;;;5020123;28;20465;-80
2021/08/16 04:43:31;;;;;;;1.50;1.00;;;17.70;98.20;;;;;;5020405;28;20494;-79
2021/08/16 04:45:58;;;;;;;1.50;0.90;;;17.60;98.20;;;;;;5025937;28;20486;-81
2021/08/16 04:48:25;;;;;;;1.50;1.00;;;17.60;98.20;;;;;;5022600;28;20484;-79
2021/08/16 04:50:52;;;;;;;1.50;0.90;;;17.70;98.20;;;;;;5022380;28;20849;-84
2021/08/16 04:53:23;;;;;;;1.50;1.00;;;17.70;98.20;;;;;;5023904;28;20473;-80
2021/08/16 04:55:50;;;;;;;1.50;0.90;;;17.60;98.20;;;;;;5025551;28;20486;-82
2021/08/16 04:58:16;;;;;;;1.50;0.90;;;17.60;98.20;;;;;;5011897;28;20578;-81
2021/08/16 05:00:44;;;;;;;1.50;1.00;;;17.70;98.20;;;;;;5033102;28;20546;-83
2021/08/16 05:03:10;;;;;;;1.50;0.90;;;17.70;98.20;;;;;;5006260;28;20504;-82
2021/08/16 05:05:37;;;;;;;1.50;1.00;;;17.70;98.20;;;;;;5036521;28;20879;-83
2021/08/16 05:08:05;;;;;;;1.50;1.00;;;17.60;98.20;;;;;;5006498;28;20620;-81
2021/08/16 05:10:33;;;;;;;1.50;1.00;;;17.60;98.20;;;;;;5036126;28;20851;-82
2021/08/16 05:13:02;;;;;;;1.50;0.90;;;17.70;98.20;;;;;;5009705;28;20473;-83
2021/08/16 05:15:29;;;;;;;1.50;1.00;;;17.70;98.20;;;;;;5036777;28;20829;-82
2021/08/16 05:17:57;;;;;;;1.50;0.90;;;17.70;98.20;;;;;;5016673;28;20475;-81
2021/08/16 05:20:24;;;;;;;1.50;1.00;;;17.70;98.20;;;;;;5036649;28;20487;-82
2021/08/16 05:22:51;;;;;;;1.50;1.00;;;17.70;98.20;;;;;;5012599;28;20479;-83
2021/08/16 05:25:19;;;;;;;1.50;1.00;;;17.70;98.20;;;;;;5033189;28;20452;-82
2021/08/16 05:27:48;;;;;;;1.50;0.90;;;17.70;98.20;;;;;;5005422;28;20491;-81
2021/08/16 05:30:16;;;;;;;1.50;0.90;;;17.70;98.20;;;;;;5035783;28;20458;-82
2021/08/16 05:32:43;;;;;;;1.60;1.20;;;17.70;98.20;;;;;;5015932;28;20541;-83
2021/08/16 05:35:11;;;;;;;1.50;0.97;;;17.70;98.20;;;;;;5035716;28;20538;-84
2021/08/16 05:37:38;;;;;;;1.50;0.90;;;17.70;98.20;;;;;;5008614;28;20895;-82
2021/08/16 05:40:06;;;;;;;1.50;0.90;;;17.70;98.20;;;;;;5035002;28;20889;-80
2021/08/16 05:42:33;;;;;;;1.50;0.97;;;17.70;98.20;;;;;;5006459;28;20486;-81
2021/08/16 05:45:03;;;;;;;1.50;0.90;;;17.80;98.20;;;;;;5034850;28;20467;-80
2021/08/16 05:47:30;;;;;;;1.50;1.00;;;17.80;98.20;;;;;;5015161;28;21026;-83
2021/08/16 05:49:57;;;;;;;1.50;0.90;;;17.90;98.20;;;;;;5036714;28;20461;-81
2021/08/16 05:52:24;;;;;;;1.70;1.53;;;17.90;98.20;;;;;;5014099;28;20478;-82
2021/08/16 05:54:50;;;;;;;1.50;1.00;;;17.90;98.20;;;;;;5035057;28;20527;-81
2021/08/16 05:57:17;;;;;;;1.50;0.93;;;18.00;98.20;;;;;;5014354;28;20491;-81
2021/08/16 05:59:44;;;;;;;1.50;0.90;;;18.00;98.20;;;;;;5033731;28;20477;-80
2021/08/16 06:02:12;;;;;;;1.50;0.90;;;18.10;98.20;;;;;;5015331;28;20507;-79
2021/08/16 06:04:39;;;;;;;1.50;0.90;;;18.10;98.20;;;;;;5036401;28;20500;-81
2021/08/16 06:07:06;;;;;;;1.50;0.90;;;18.10;98.20;;;;;;5015970;28;20495;-81
2021/08/16 06:09:33;;;;;;;1.50;0.90;;;18.20;98.20;;;;;;5032609;28;20451;-83
2021/08/16 06:12:00;;;;;;;1.50;1.00;;;18.20;98.20;;;;;;5019872;28;20476;-82
2021/08/16 06:14:26;;;;;;;1.50;0.90;;;18.30;98.20;;;;;;5037196;28;20466;-79
2021/08/16 06:16:53;;;;;;;1.50;0.90;;;18.30;98.20;;;;;;5011328;28;20544;-80
2021/08/16 06:19:21;;;;;;;1.50;1.00;;;18.40;98.20;;;;;;5030941;28;20466;-80
2021/08/16 06:21:48;;;;;;;1.50;1.00;;;18.40;98.20;;;;;;5012659;28;20468;-80
2021/08/16 06:24:15;;;;;;;1.50;0.93;;;18.50;98.20;;;;;;5029397;28;20605;-81
2021/08/16 06:26:42;;;;;;;1.50;0.90;;;18.50;98.20;;;;;;5020793;28;20986;-81
2021/08/16 06:29:08;;;;;;;1.50;0.90;;;18.60;97.90;;;;;;5021016;28;20546;-81
2021/08/16 06:31:36;;;;;;;1.50;0.90;;;18.60;97.70;;;;;;5018407;28;20483;-81
2021/08/16 06:34:05;;;;;;;1.50;1.00;;;18.70;97.90;;;;;;5016855;28;20459;-81
2021/08/16 06:36:37;;;;;;;1.50;0.90;;;18.70;97.40;;;;;;5006990;28;20527;-82
2021/08/16 06:39:05;;;;;;;1.50;1.00;;;18.80;97.40;;;;;;5026984;28;20788;-83
2021/08/16 06:41:32;;;;;;;1.50;1.00;;;18.80;97.30;;;;;;5021468;28;20942;-81
2021/08/16 06:44:02;;;;;;;1.50;0.90;;;18.90;97.20;;;;;;5033439;28;20990;-83
2021/08/16 06:46:29;;;;;;;1.50;1.00;;;18.90;97.10;;;;;;5023898;28;21028;-83
2021/08/16 06:48:56;;;;;;;1.50;1.00;;;19.00;97.00;;;;;;5026387;28;20550;-80
2021/08/16 06:51:23;;;;;;;1.50;1.00;;;19.00;97.20;;;;;;5021805;28;20495;-82
2021/08/16 06:53:52;;;;;;;1.50;1.00;;;19.00;96.90;;;;;;5024076;28;20463;-82
2021/08/16 06:56:18;;;;;;;1.50;0.90;;;19.00;96.90;;;;;;5023686;28;20981;-82
2021/08/16 06:58:45;;;;;;;1.50;1.00;;;19.00;97.00;;;;;;5018902;28;20494;-82
2021/08/16 07:01:23;;;;;;;1.50;0.90;;;19.10;97.00;;;;;;5021304;28;20973;-81
2021/08/16 07:03:50;;;;;;;1.50;0.90;;;19.10;96.90;;;;;;5018931;28;20529;-83
2021/08/16 07:06:17;;;;;;;1.50;0.90;;;19.30;96.50;;;;;;5018667;28;20487;-82
2021/08/16 07:08:44;;;;;;;1.50;0.90;;;19.30;96.50;;;;;;5019545;28;20467;-83
2021/08/16 07:11:12;;;;;;;1.50;1.00;;;19.40;96.10;;;;;;5018755;28;20880;-82
2021/08/16 07:13:39;;;;;;;1.50;1.00;;;19.40;95.80;;;;;;5021832;28;20455;-81
2021/08/16 07:16:06;;;;;;;1.50;0.90;;;19.50;95.90;;;;;;5020686;28;20479;-80
2021/08/16 07:18:34;;;;;;;1.50;0.90;;;19.60;95.70;;;;;;5019925;28;20459;-82
2021/08/16 07:21:01;;;;;;;1.50;0.90;;;19.60;95.50;;;;;;5023761;28;20467;-82
2021/08/16 07:23:28;;;;;;;1.50;1.00;;;19.60;95.50;;;;;;5016729;28;20948;-81
2021/08/16 07:25:55;;;;;;;1.50;0.90;;;19.60;95.60;;;;;;5025308;28;20485;-81
2021/08/16 07:28:23;;;;;;;1.50;0.90;;;19.60;95.30;;;;;;5022240;28;20551;-84
2021/08/16 07:30:50;;;;;;;1.50;0.90;;;19.70;95.70;;;;;;5021087;28;20455;-82
2021/08/16 07:33:17;;;;;;;1.50;0.90;;;19.80;95.20;;;;;;5017875;28;20466;-82
2021/08/16 07:35:44;;;;;;;1.50;0.90;;;20.00;95.30;;;;;;5031360;28;20582;-80
2021/08/16 07:38:11;;;;;;;1.50;0.90;;;20.20;94.50;;;;;;5006142;28;20463;-81
2021/08/16 07:40:37;;;;;;;1.50;0.90;;;20.40;93.80;;;;;;5036073;28;20459;-82
2021/08/16 07:43:04;;;;;;;1.50;0.90;;;20.60;92.90;;;;;;5011746;28;20491;-80
2021/08/16 07:45:33;;;;;;;1.50;0.90;;;20.70;93.00;;;;;;5036610;28;20467;-82
2021/08/16 07:47:59;;;;;;;1.50;0.97;;;20.80;92.60;;;;;;5007556;28;20852;-83
2021/08/16 07:50:26;;;;;;;1.50;0.90;;;20.90;92.30;;;;;;5039309;28;20985;-81
2021/08/16 07:52:54;;;;;;;1.60;1.00;;;21.10;92.40;;;;;;5010434;28;20490;-81
2021/08/16 07:55:21;;;;;;;1.50;0.90;;;21.20;91.60;;;;;;5040129;28;20456;-81
2021/08/16 07:57:47;;;;;;;1.50;0.90;;;21.30;91.50;;;;;;5013079;28;21038;-80
2021/08/16 08:00:15;;;;;;;1.50;0.90;;;21.30;91.40;;;;;;5037959;28;20958;-80
2021/08/16 08:02:44;;;;;;;1.50;0.90;;;21.30;91.50;;;;;;5012898;28;20488;-80
2021/08/16 08:05:13;;;;;;;1.50;0.90;;;21.20;91.20;;;;;;5035518;28;21001;-80
2021/08/16 08:07:41;;;;;;;1.50;0.90;;;21.10;91.50;;;;;;5013736;28;20480;-78
2021/08/16 08:10:10;;;;;;;1.50;0.90;;;21.00;91.90;;;;;;5038612;28;20463;-80
2021/08/16 08:12:37;;;;;;;1.50;0.90;;;20.90;92.10;;;;;;5013924;28;20708;-80
2021/08/16 08:15:04;;;;;;;1.50;0.90;;;20.80;92.40;;;;;;5039235;28;20458;-80
2021/08/16 08:17:31;;;;;;;1.50;0.90;;;20.80;92.50;;;;;;5015328;28;20664;-79
2021/08/16 08:20:00;;;;;;;1.50;0.90;;;20.70;92.60;;;;;;5039917;28;20451;-81
2021/08/16 08:22:27;;;;;;;1.50;0.90;;;20.80;92.80;;;;;;5016418;28;20488;-79
2021/08/16 08:24:55;;;;;;;1.50;0.90;;;20.80;92.70;;;;;;5033158;28;20497;-81
2021/08/16 08:27:22;;;;;;;1.50;0.93;;;20.80;92.50;;;;;;5018126;28;20487;-81
2021/08/16 08:29:49;;;;;;;1.50;0.90;;;20.80;92.60;;;;;;5038716;28;20467;-80
2021/08/16 08:32:16;;;;;;;1.50;0.90;;;20.80;92.60;;;;;;5016109;28;20502;-81
2021/08/16 08:34:44;;;;;;;1.50;0.90;;;20.80;92.70;;;;;;5034660;28;20508;-80
2021/08/16 08:37:14;;;;;;;1.50;0.90;;;20.70;93.00;;;;;;5018630;28;20491;-81
2021/08/16 08:39:41;;;;;;;1.50;0.90;;;20.80;93.10;;;;;;5037434;28;20893;-81
2021/08/16 08:42:11;;;;;;;1.50;0.97;;;20.90;93.00;;;;;;5022394;28;20502;-83
2021/08/16 08:44:38;;;;;;;1.50;0.90;;;21.00;92.60;;;;;;5028444;28;20574;-81
2021/08/16 08:47:05;;;;;;;1.50;0.90;;;21.10;92.30;;;;;;5026364;28;20498;-80
2021/08/16 08:49:32;;;;;;;1.50;0.90;;;21.30;91.70;;;;;;5037072;28;20459;-79
2021/08/16 08:51:59;;;;;;;1.50;0.90;;;21.40;91.60;;;;;;5017653;28;21045;-80
2021/08/16 08:54:28;;;;;;;1.50;0.90;;;21.70;91.30;;;;;;5031790;28;20745;-82
2021/08/16 08:56:56;;;;;;;1.50;1.00;;;21.90;91.30;;;;;;5018961;28;20577;-80
2021/08/16 08:59:24;;;;;;;1.50;0.90;;;22.10;89.80;;;;;;5030635;28;20463;-79
2021/08/16 09:01:53;;;;;;;1.50;0.90;;;22.20;89.10;;;;;;5018368;28;21064;-81
2021/08/16 09:04:20;;;;;;;1.50;0.90;;;22.30;88.10;;;;;;5034481;28;20549;-80
2021/08/16 09:06:47;;;;;;;1.50;0.90;;;22.20;88.40;;;;;;5018858;28;20510;-79
2021/08/16 09:09:15;;;;;;;1.50;0.90;;;22.10;88.30;;;;;;5031188;28;20467;-80
2021/08/16 09:11:48;;;;;;;1.50;0.90;;;21.90;88.30;;;;;;5022840;28;20547;-80
2021/08/16 09:14:15;;;;;;;1.50;0.90;;;21.90;89.20;;;;;;5027776;28;20443;-80
2021/08/16 09:16:46;;;;;;;1.50;0.90;;;21.80;89.30;;;;;;5022233;28;20507;-80
2021/08/16 09:19:15;;;;;;;1.50;0.93;;;21.90;89.50;;;;;;5023238;28;20562;-80
2021/08/16 09:21:45;;;;;;;1.50;0.90;;;22.10;89.20;;;;;;5020999;28;20491;-79
2021/08/16 09:24:12;;;;;;;1.50;0.90;;;22.10;88.40;;;;;;5021935;28;20483;-81
2021/08/16 09:26:42;;;;;;;1.50;1.00;;;22.10;88.40;;;;;;5021331;28;20662;-80
2021/08/16 09:29:13;;;;;;;1.50;0.90;;;22.10;88.40;;;;;;5029041;28;20462;-81
2021/08/16 09:31:50;;;;;;;1.50;0.90;;;22.00;88.60;;;;;;5019655;28;20488;-80
2021/08/16 09:34:31;;;;;;;1.50;0.90;;;22.00;88.50;;;;;;5023336;28;20479;-81
2021/08/16 09:37:01;;;;;;;1.50;0.90;;;22.00;89.00;;;;;;5014869;28;20494;-80
2021/08/16 09:39:29;;;;;;;1.47;0.90;;;22.00;88.90;;;;;;5023361;28;20820;-82
2021/08/16 09:42:01;;;;;;;1.50;0.90;;;22.00;88.80;;;;;;5008051;28;20485;-82
2021/08/16 09:44:30;;;;;;;1.50;0.90;;;22.00;89.10;;;;;;5027296;28;20475;-82
2021/08/16 09:47:02;;;;;;;1.50;0.90;;;22.10;88.90;;;;;;5017613;28;20870;-82
2021/08/16 09:49:29;;;;;;;1.50;0.90;;;22.10;89.20;;;;;;5030851;28;20470;-80
2021/08/16 09:52:07;;;;;;;1.50;0.90;;;22.20;89.50;;;;;;5015755;28;20484;-83
2021/08/16 09:54:35;;;;;;;1.50;0.90;;;22.50;88.40;;;;;;5029950;28;20473;-81
2021/08/16 09:57:02;;;;;;;1.50;0.90;;;22.70;87.10;;;;;;5016753;28;20487;-81
2021/08/16 09:59:32;;;;;;;1.50;0.90;;;22.90;86.30;;;;;;5030630;28;21056;-83
2021/08/16 10:01:59;;;;;;;1.50;0.90;;;23.00;86.70;;;;;;5016683;28;20912;-80
2021/08/16 10:04:26;;;;;;;1.50;0.90;;;23.00;85.90;;;;;;5032333;28;20483;-81
2021/08/16 10:06:55;;;;;;;1.50;0.90;;;23.10;85.80;;;;;;5017513;28;20492;-82
2021/08/16 10:09:24;;;;;;;1.50;0.90;;;23.10;85.80;;;;;;5035160;28;20478;-82
2021/08/16 10:11:52;;;;;;;1.50;0.90;;;23.00;85.00;;;;;;5015698;28;20484;-86
2021/08/16 10:14:23;;;;;;;1.50;0.90;;;22.80;85.80;;;;;;5027490;28;20464;-86
2021/08/16 10:16:54;;;;;;;1.50;0.90;;;22.80;86.30;;;;;;5016458;28;20496;-81
2021/08/16 10:19:25;;;;;;;1.50;0.90;;;22.70;85.90;;;;;;5026830;28;20996;-81
2021/08/16 10:21:57;;;;;;;1.50;0.90;;;22.50;86.50;;;;;;5015799;28;20515;-84
2021/08/16 10:24:28;;;;;;;1.50;0.90;;;22.40;87.10;;;;;;5026530;28;20468;-83
2021/08/16 10:26:56;;;;;;;1.50;0.90;;;22.30;87.30;;;;;;5013690;28;20942;-80
2021/08/16 10:29:23;;;;;;;1.50;0.90;;;22.20;87.10;;;;;;5028044;28;20470;-81
2021/08/16 10:31:53;;;;;;;1.50;0.90;;;22.20;87.40;;;;;;5016071;28;20476;-81
2021/08/16 10:34:28;;;;;;;1.50;0.90;;;22.20;88.10;;;;;;5026211;28;20459;-80
2021/08/16 10:36:57;;;;;;;1.50;0.90;;;22.10;90.20;;;;;;5022727;28;20478;-80
2021/08/16 10:39:34;;;;;;;1.50;0.90;;;22.00;92.70;;;;;;5043507;23;20494;-82
2021/08/16 10:42:12;;;;;;;1.50;0.90;;;21.70;94.90;;;;;;5011671;28;20479;-83
2021/08/16 10:44:42;;;;;;;1.50;0.90;;;21.50;95.80;;;;;;5024473;28;20876;-84
2021/08/16 10:47:11;;;;;;;1.50;0.90;;;21.30;97.00;;;;;;5024800;28;20474;-80
2021/08/16 10:49:40;;;;;;;1.50;0.90;;;21.00;98.20;;;;;;5007464;28;20485;-81
2021/08/16 10:52:19;;;;;;;1.50;0.90;;;20.70;98.20;;;;;;4992654;28;20496;-79
2021/08/16 10:54:46;;;;;;;1.50;0.90;;;20.50;98.20;;;;;;5004829;28;20491;-79
2021/08/16 10:57:12;;;;;;;1.50;0.90;;;20.20;98.20;;;;;;5009681;28;20494;-80
2021/08/16 10:59:39;;;;;;;1.50;0.90;;;20.10;98.20;;;;;;5001659;28;20473;-82
2021/08/16 11:02:06;;;;;;;1.50;0.90;;;20.00;98.20;;;;;;5000033;28;20504;-80
2021/08/16 11:04:40;;;;;;;1.50;0.90;;;19.70;98.20;;;;;;5011808;28;20483;-81
2021/08/16 11:07:08;;;;;;;1.50;0.90;;;19.60;98.20;;;;;;4997085;28;20944;-82
2021/08/16 11:09:37;;;;;;;1.50;0.90;;;19.50;98.20;;;;;;5006265;28;20870;-81
2021/08/16 11:12:06;;;;;;;1.50;0.90;;;19.60;98.20;;;;;;5003234;28;20495;-80
2021/08/16 11:14:35;;;;;;;1.50;0.90;;;19.60;98.20;;;;;;5009173;28;20456;-81
2021/08/16 11:17:02;;;;;;;1.50;0.90;;;19.70;98.20;;;;;;4999321;28;20488;-82
2021/08/16 11:19:41;;;;;;;1.50;0.90;;;19.70;98.20;;;;;;5007513;28;20504;-82
2021/08/16 11:22:08;;;;;;;1.50;1.00;;;19.90;98.20;;;;;;4990359;28;20857;-81
2021/08/16 11:24:37;;;;;;;1.50;0.90;;;20.00;98.20;;;;;;5003532;28;20497;-81
2021/08/16 11:27:05;;;;;;;1.50;1.00;;;20.10;98.20;;;;;;4986342;28;21047;-79
2021/08/16 11:29:33;;;;;;;1.50;0.90;;;20.10;98.20;;;;;;4997255;28;20689;-78
2021/08/16 11:32:02;;;;;;;1.50;0.90;;;20.10;98.20;;;;;;5003679;28;20478;-79
2021/08/16 11:34:30;;;;;;;1.50;0.90;;;20.10;98.20;;;;;;5008454;28;20453;-81
2021/08/16 11:36:59;;;;;;;1.50;0.90;;;20.10;98.20;;;;;;4998155;28;20487;-80
2021/08/16 11:39:31;;;;;;;1.50;0.90;;;20.10;98.20;;;;;;5003113;28;20496;-79
2021/08/16 11:41:59;;;;;;;1.50;0.90;;;20.20;98.20;;;;;;4996358;28;20480;-80
2021/08/16 11:44:29;;;;;;;1.50;0.90;;;20.30;98.20;;;;;;5006183;28;20457;-81
2021/08/16 11:46:58;;;;;;;1.50;0.90;;;20.40;98.20;;;;;;4997326;28;20498;-80
2021/08/16 11:49:27;;;;;;;1.50;0.90;;;20.40;98.20;;;;;;5000467;28;20516;-81
2021/08/16 11:51:55;;;;;;;1.50;1.00;;;20.50;98.20;;;;;;4997608;28;20502;-82
2021/08/16 11:54:28;;;;;;;1.50;0.90;;;20.40;98.20;;;;;;5005129;28;20707;-81
2021/08/16 11:56:58;;;;;;;1.50;0.90;;;20.30;98.20;;;;;;4987147;28;20514;-82
2021/08/16 11:59:25;;;;;;;1.50;0.90;;;20.20;98.20;;;;;;5000085;28;20484;-80
2021/08/16 12:01:53;;;;;;;1.50;0.90;;;20.10;98.20;;;;;;4996977;28;20987;-80
2021/08/16 12:04:21;;;;;;;1.50;0.90;;;20.00;98.20;;;;;;4995750;28;20546;-81
2021/08/16 12:06:49;;;;;;;1.50;0.90;;;19.80;98.20;;;;;;4989985;28;20540;-79
2021/08/16 12:09:17;;;;;;;1.50;0.90;;;19.80;98.20;;;;;;5006626;28;20848;-83
2021/08/16 12:11:57;;;;;;;1.50;1.00;;;19.70;98.20;;;;;;4988033;28;20491;-84
2021/08/16 12:14:28;;;;;;;1.50;0.90;;;19.60;98.20;;;;;;4998305;28;20471;-80
2021/08/16 12:16:55;;;;;;;1.50;0.93;;;19.50;98.20;;;;;;4996198;28;21101;-81
2021/08/16 12:19:32;;;;;;;1.50;0.90;;;19.40;98.20;;;;;;5003598;28;20503;-79
2021/08/16 12:22:10;;;;;;;1.50;0.90;;;19.00;98.20;;;;;;5007834;28;20475;-83
2021/08/16 12:24:39;;;;;;;1.50;0.90;;;18.70;98.20;;;;;;4995422;28;21025;-80
2021/08/16 12:27:09;;;;;;;1.50;1.00;;;18.50;98.20;;;;;;4988010;28;20495;-81
2021/08/16 12:29:41;;;;;;;1.50;1.00;;;18.40;98.20;;;;;;5002105;28;20485;-80
2021/08/16 12:32:15;;;;;;;1.50;0.90;;;18.40;98.20;;;;;;4989604;28;20544;-81
2021/08/16 12:34:42;;;;;;;1.50;0.90;;;18.30;98.20;;;;;;5002923;28;20467;-80
2021/08/16 12:37:22;;;;;;;1.50;1.00;;;18.30;98.20;;;;;;5005547;28;20491;-80
2021/08/16 12:39:49;;;;;;;1.50;0.90;;;18.40;98.20;;;;;;4998594;28;21014;-79
2021/08/16 12:42:17;;;;;;;1.50;0.93;;;18.50;98.20;;;;;;5001306;28;20489;-82
2021/08/16 12:44:51;;;;;;;1.50;1.00;;;18.50;98.20;;;;;;5009781;28;20493;-83
2021/08/16 12:47:27;;;;;;;1.57;1.10;;;18.50;98.20;;;;;;5003057;28;20482;-81
2021/08/16 12:49:54;;;;;;;1.50;0.97;;;18.50;98.20;;;;;;5010531;28;20484;-81
2021/08/16 12:52:21;;;;;;;1.50;0.90;;;18.60;98.20;;;;;;5011082;28;20475;-80